SBMQ/MCP METAR and TAF weather

Enter ICAO airport designator
Station Type Date Time Source
SBMQ METAR 2020/10/29 17:00 UTC NOAA

SBMQ 291700Z 06012KT 9999 SCT033 35/24 Q1007


Station Type Date Time Source
SBMQ Decoded METAR 2020/10/29 17:00 UTC NOAA

Macapa, Brazil (SBMQ) 00-02N 050-03W
Oct 29, 2020 - 01:00 PM EDT / 2020.10.29 1700 UTC
Wind: from the ENE (060 degrees) at 14 MPH (12 KT):0
Visibility: greater than 7 mile(s):0
Sky conditions: partly cloudy
Temperature: 95 F (35 C)
Heat index: 107.4 F (41.9 C):1
Dew Point: 75 F (24 C)
Relative Humidity: 53%
Pressure (altimeter): 29.74 in. Hg (1007 hPa)
ob: SBMQ 291700Z 06012KT 9999 SCT033 35/24 Q1007
cycle: 17

Station Type Date Time Source
SBMQ TAF 2020/10/29 18:03 UTC NOAA

TAF SBMQ 291500Z 2918/3018 07010KT 8000 SCT025 FEW035TCU TN26/3009Z TX36/3017Z
BECMG 2921/2923 05007KT 9999 FEW018
BECMG 3003/3005 35005KT SCT017
BECMG 3010/3012 05007KT BKN020
BECMG 3014/3016 09010KT SCT025 FEW030TCU
RMK PGU

Example: see airport list